createdAt,value
2022-08-16T00:02:12.991Z,39.46
2022-08-16T00:04:36.462Z,39.72
2022-08-16T00:07:06.238Z,39.57
2022-08-16T00:09:35.965Z,39.15
2022-08-16T00:12:06.029Z,38.97
2022-08-16T00:14:35.617Z,39.04
2022-08-16T00:17:18.896Z,39.39
2022-08-16T00:19:41.129Z,39.43
2022-08-16T00:22:12.793Z,39.22
2022-08-16T00:24:40.050Z,38.84
2022-08-16T00:27:12.609Z,38.78
2022-08-16T00:29:42.497Z,38.99
2022-08-16T00:32:12.721Z,39.28
2022-08-16T00:34:53.880Z,39.18
2022-08-16T00:37:17.061Z,38.90
2022-08-16T00:39:57.194Z,38.60
2022-08-16T00:42:30.734Z,38.51
2022-08-16T00:44:56.827Z,38.98
2022-08-16T00:47:26.851Z,39.00
2022-08-16T00:49:58.193Z,38.52
2022-08-16T00:52:30.067Z,38.38
2022-08-16T00:54:58.850Z,38.36
2022-08-16T00:57:59.051Z,38.42
2022-08-16T01:00:02.283Z,38.45
2022-08-16T01:02:33.082Z,38.59
2022-08-16T01:05:10.371Z,38.14
2022-08-16T01:07:51.670Z,38.03
2022-08-16T01:10:16.145Z,37.87
2022-08-16T01:12:38.974Z,38.08
2022-08-16T01:15:09.626Z,38.46
2022-08-16T01:17:43.362Z,37.91
2022-08-16T01:20:24.677Z,37.84
2022-08-16T01:22:53.819Z,37.78
2022-08-16T01:25:33.672Z,37.82
2022-08-16T01:28:02.283Z,38.00
2022-08-16T01:30:34.236Z,38.03
2022-08-16T01:33:14.331Z,37.68
2022-08-16T01:35:42.321Z,37.63
2022-08-16T01:38:21.441Z,37.54
2022-08-16T01:40:58.231Z,37.73
2022-08-16T01:43:31.141Z,37.99
2022-08-16T01:46:30.053Z,37.65
2022-08-16T01:48:36.778Z,37.46
2022-08-16T01:51:16.665Z,37.31
2022-08-16T01:53:41.241Z,37.46
2022-08-16T01:56:23.684Z,37.78
2022-08-16T01:58:48.030Z,37.31
2022-08-16T02:01:16.247Z,37.16
2022-08-16T02:03:50.599Z,37.03
2022-08-16T02:06:34.154Z,36.99
2022-08-16T02:08:51.183Z,37.43
2022-08-16T02:11:20.847Z,37.29
2022-08-16T02:13:54.891Z,37.08
2022-08-16T02:16:23.480Z,36.92
2022-08-16T02:18:53.812Z,36.79
2022-08-16T02:21:31.344Z,36.88
2022-08-16T02:23:56.130Z,37.10
2022-08-16T02:26:26.986Z,36.83
2022-08-16T02:28:59.999Z,36.67
2022-08-16T02:32:04.109Z,36.54
2022-08-16T02:34:06.320Z,36.51
2022-08-16T02:36:42.412Z,37.10
2022-08-16T02:39:07.642Z,36.61
2022-08-16T02:41:39.597Z,36.45
2022-08-16T02:44:13.884Z,36.35
2022-08-16T02:46:50.480Z,36.27
2022-08-16T02:49:16.763Z,36.56
2022-08-16T02:51:46.587Z,37.19
2022-08-16T02:54:17.643Z,37.44
2022-08-16T02:56:48.147Z,37.30
2022-08-16T02:59:17.733Z,37.08
2022-08-16T03:01:50.149Z,36.94
2022-08-16T03:04:39.762Z,37.82
2022-08-16T03:06:57.346Z,37.90
2022-08-16T03:09:28.861Z,37.90
2022-08-16T03:12:04.079Z,37.86
2022-08-16T03:14:34.109Z,37.86
2022-08-16T03:17:04.203Z,37.89
2022-08-16T03:19:48.410Z,37.93
2022-08-16T03:22:06.119Z,38.00
2022-08-16T03:24:36.246Z,38.04
2022-08-16T03:27:06.125Z,38.11
2022-08-16T03:29:36.377Z,38.17
2022-08-16T03:32:06.845Z,38.20
2022-08-16T03:34:36.487Z,38.25
2022-08-16T03:37:06.909Z,38.37
2022-08-16T03:39:42.569Z,38.69
2022-08-16T03:42:09.707Z,38.70
2022-08-16T03:44:43.984Z,38.68
2022-08-16T03:47:10.718Z,38.67
2022-08-16T03:49:40.587Z,38.67
2022-08-16T03:52:14.143Z,38.72
2022-08-16T03:54:57.418Z,39.09
2022-08-16T03:57:18.021Z,38.99
2022-08-16T03:59:51.059Z,38.99
2022-08-16T04:02:31.480Z,38.96
2022-08-16T04:04:54.785Z,39.05
2022-08-16T04:07:25.822Z,39.49
2022-08-16T04:09:55.466Z,39.34
2022-08-16T04:12:52.980Z,39.24
2022-08-16T04:14:59.685Z,39.23
2022-08-16T04:17:30.071Z,39.19
2022-08-16T04:20:00.053Z,39.54
2022-08-16T04:22:33.231Z,39.54
2022-08-16T04:25:07.331Z,39.37
2022-08-16T04:27:40.011Z,39.35
2022-08-16T04:30:31.835Z,39.34
2022-08-16T04:32:49.119Z,39.34
2022-08-16T04:35:20.631Z,39.77
2022-08-16T04:37:53.729Z,39.61
2022-08-16T04:40:25.138Z,39.61
2022-08-16T04:42:55.176Z,39.54
2022-08-16T04:45:35.371Z,39.50
2022-08-16T04:47:58.103Z,39.14
2022-08-16T04:50:31.195Z,40.16
2022-08-16T04:53:01.018Z,39.74
2022-08-16T04:55:31.995Z,39.72
2022-08-16T04:58:02.280Z,39.68
2022-08-16T05:00:35.069Z,39.66
2022-08-16T05:03:08.338Z,39.57
2022-08-16T05:05:44.871Z,39.82
2022-08-16T05:08:29.232Z,39.81
2022-08-16T05:10:44.361Z,39.76
2022-08-16T05:13:14.481Z,39.73
2022-08-16T05:15:45.465Z,39.37
2022-08-16T05:18:18.271Z,40.26
2022-08-16T05:21:06.520Z,39.88
2022-08-16T05:23:19.509Z,39.87
2022-08-16T05:25:50.942Z,39.84
2022-08-16T05:28:22.303Z,39.85
2022-08-16T05:30:53.718Z,39.69
2022-08-16T05:33:23.351Z,40.02
2022-08-16T05:35:55.230Z,39.98
2022-08-16T05:38:30.977Z,39.92
2022-08-16T05:41:02.237Z,39.89
2022-08-16T05:43:43.353Z,39.54
2022-08-16T05:46:06.199Z,40.65
2022-08-16T05:48:37.510Z,40.14
2022-08-16T05:51:07.691Z,40.10
2022-08-16T05:53:38.882Z,40.05
2022-08-16T05:56:19.464Z,40.01
2022-08-16T05:58:47.171Z,39.67
2022-08-16T06:01:16.820Z,40.30
2022-08-16T06:03:46.762Z,40.25
2022-08-16T06:06:28.060Z,40.16
2022-08-16T06:08:49.036Z,40.12
2022-08-16T06:11:20.415Z,39.68
2022-08-16T06:13:51.871Z,40.71
2022-08-16T06:16:23.182Z,40.34
2022-08-16T06:18:54.853Z,40.25
2022-08-16T06:21:28.041Z,40.19
2022-08-16T06:24:01.174Z,40.11
2022-08-16T06:26:34.856Z,39.62
2022-08-16T06:29:01.993Z,40.50
2022-08-16T06:31:31.667Z,40.37
2022-08-16T06:34:03.093Z,40.28
2022-08-16T06:36:34.243Z,40.23
2022-08-16T06:39:06.158Z,39.96
2022-08-16T06:41:39.654Z,40.55
2022-08-16T06:44:07.037Z,40.47
2022-08-16T06:46:38.728Z,40.42
2022-08-16T06:49:10.823Z,40.36
2022-08-16T06:54:02.431Z,39.70
2022-08-16T06:56:32.164Z,40.77
2022-08-16T06:59:02.495Z,40.59
2022-08-16T07:01:45.200Z,40.50
2022-08-16T07:04:11.986Z,40.42
2022-08-16T07:06:38.374Z,40.30
2022-08-16T07:09:09.529Z,40.22
2022-08-16T07:11:47.420Z,40.47
2022-08-16T07:14:25.259Z,40.50
2022-08-16T07:16:42.764Z,40.44
2022-08-16T07:19:13.894Z,40.38
2022-08-16T07:21:59.987Z,39.77
2022-08-16T07:24:29.911Z,40.94
2022-08-16T07:26:49.787Z,40.64
2022-08-16T07:29:19.545Z,40.57
2022-08-16T07:31:51.397Z,40.50
2022-08-16T07:34:35.156Z,40.43
2022-08-16T07:36:57.800Z,40.16
2022-08-16T07:39:30.437Z,40.80
2022-08-16T07:41:57.806Z,40.69
2022-08-16T07:44:27.356Z,40.62
2022-08-16T07:46:58.634Z,40.54
2022-08-16T07:49:32.273Z,39.92
2022-08-16T07:51:59.733Z,41.10
2022-08-16T07:54:39.175Z,40.84
2022-08-16T07:57:05.533Z,40.72
2022-08-16T07:59:42.758Z,40.65
2022-08-16T08:02:12.039Z,40.60
2022-08-16T08:04:39.662Z,39.92
2022-08-16T08:07:10.608Z,40.99
2022-08-16T08:09:43.419Z,40.80
2022-08-16T08:12:32.429Z,40.73
2022-08-16T08:14:43.811Z,40.67
2022-08-16T08:17:16.012Z,40.17
2022-08-16T08:19:53.278Z,41.14
2022-08-16T08:22:22.031Z,40.96
2022-08-16T08:24:53.273Z,40.83
2022-08-16T08:27:23.642Z,40.76
2022-08-16T08:30:49.262Z,40.70
2022-08-16T08:32:59.944Z,39.99
2022-08-16T08:35:03.043Z,41.06
2022-08-16T08:37:54.265Z,40.90
2022-08-16T08:40:03.452Z,40.82
2022-08-16T08:42:34.138Z,40.75
2022-08-16T08:45:04.580Z,40.38
2022-08-16T08:47:34.887Z,40.81
2022-08-16T08:50:05.421Z,41.05
2022-08-16T08:52:37.902Z,40.89
2022-08-16T08:55:11.000Z,40.82
2022-08-16T08:57:44.111Z,40.78
2022-08-16T09:00:14.663Z,40.77
2022-08-16T09:02:52.125Z,40.43
2022-08-16T09:05:17.122Z,41.08
2022-08-16T09:08:00.271Z,40.96
2022-08-16T09:10:20.652Z,40.89
2022-08-16T09:12:50.740Z,40.83
2022-08-16T09:15:22.116Z,40.78
2022-08-16T09:17:55.079Z,40.21
2022-08-16T09:20:25.976Z,41.13
2022-08-16T09:22:55.789Z,40.99
2022-08-16T09:25:33.764Z,40.90
2022-08-16T09:28:02.476Z,40.86
2022-08-16T09:30:34.452Z,40.82
2022-08-16T09:33:01.273Z,40.81
2022-08-16T09:35:31.189Z,39.98
2022-08-16T09:38:02.270Z,41.19
2022-08-16T09:40:42.791Z,41.05
2022-08-16T09:43:05.758Z,40.98
2022-08-16T09:45:37.368Z,40.90
2022-08-16T09:48:09.302Z,40.86
2022-08-16T09:50:39.868Z,40.59
2022-08-16T09:53:18.422Z,40.78
2022-08-16T09:55:50.130Z,41.22
2022-08-16T09:58:41.744Z,41.07
2022-08-16T10:00:55.756Z,41.01
2022-08-16T10:03:26.533Z,40.96
2022-08-16T10:05:58.085Z,40.90
2022-08-16T10:08:27.975Z,40.86
2022-08-16T10:11:23.933Z,40.19
2022-08-16T10:13:47.361Z,41.30
2022-08-16T10:16:18.254Z,40.97
2022-08-16T10:19:02.055Z,40.64
2022-08-16T10:21:20.683Z,40.39
2022-08-16T10:23:53.565Z,40.36
2022-08-16T10:27:20.323Z,40.42
2022-08-16T10:28:56.590Z,40.47
2022-08-16T10:31:46.057Z,40.47
2022-08-16T10:33:58.485Z,40.24
2022-08-16T10:36:37.872Z,39.96
2022-08-16T10:39:04.443Z,39.61
2022-08-16T10:41:34.690Z,39.37
2022-08-16T10:44:05.187Z,39.48
2022-08-16T10:46:41.457Z,39.54
2022-08-16T10:49:07.716Z,39.65
2022-08-16T10:52:01.632Z,39.61
2022-08-16T10:54:29.277Z,39.30
2022-08-16T10:56:55.482Z,38.94
2022-08-16T10:59:44.049Z,38.74
2022-08-16T11:05:05.644Z,38.41
2022-08-16T11:07:08.662Z,38.55
2022-08-16T11:09:25.648Z,38.69
2022-08-16T11:12:13.748Z,38.76
2022-08-16T11:14:27.587Z,38.88
2022-08-16T11:17:10.509Z,38.65
2022-08-16T11:19:30.913Z,38.37
2022-08-16T11:22:39.691Z,38.46
2022-08-16T11:24:43.293Z,38.64
2022-08-16T11:27:32.790Z,38.73
2022-08-16T11:29:41.475Z,38.70
2022-08-16T11:32:11.149Z,38.84
2022-08-16T11:35:05.772Z,38.92
2022-08-16T11:37:27.704Z,38.75
2022-08-16T11:39:46.705Z,38.50
2022-08-16T11:42:30.456Z,38.49
2022-08-16T11:44:52.510Z,38.62
2022-08-16T11:47:20.683Z,38.68
2022-08-16T11:49:50.393Z,38.72
2022-08-16T11:52:21.688Z,38.79
2022-08-16T11:54:53.954Z,38.84
2022-08-16T11:57:22.926Z,38.88
2022-08-16T11:59:55.015Z,38.82
2022-08-16T12:02:31.813Z,38.49
2022-08-16T12:04:57.486Z,38.56
2022-08-16T12:07:27.406Z,38.64
2022-08-16T12:09:57.910Z,38.64
2022-08-16T12:12:28.534Z,38.70
2022-08-16T12:14:59.776Z,38.72
2022-08-16T12:17:33.760Z,38.79
2022-08-16T12:20:04.947Z,38.86
2022-08-16T12:22:36.668Z,38.90
2022-08-16T12:25:12.600Z,38.79
2022-08-16T12:27:45.114Z,38.56
2022-08-16T12:30:26.376Z,38.58
2022-08-16T12:32:52.959Z,38.66
2022-08-16T12:35:22.548Z,38.66
2022-08-16T12:37:56.694Z,38.72
2022-08-16T12:40:25.551Z,38.78
2022-08-16T12:42:59.123Z,38.82
2022-08-16T12:45:30.777Z,38.89
2022-08-16T12:48:35.354Z,38.90
2022-08-16T12:50:50.757Z,38.87
2022-08-16T12:53:21.260Z,38.63
2022-08-16T12:55:51.533Z,38.64
2022-08-16T12:58:48.396Z,38.69
2022-08-16T13:00:54.011Z,38.74
2022-08-16T13:03:24.362Z,38.69
2022-08-16T13:05:56.292Z,38.67
2022-08-16T13:08:30.579Z,39.85
2022-08-16T13:10:57.410Z,39.34
2022-08-16T13:13:27.431Z,39.14
2022-08-16T13:16:03.756Z,39.38
2022-08-16T13:18:34.195Z,39.10
2022-08-16T13:21:04.034Z,40.00
2022-08-16T13:23:33.751Z,39.80
2022-08-16T13:26:06.782Z,39.66
2022-08-16T13:28:37.880Z,39.59
2022-08-16T13:31:14.270Z,39.36
2022-08-16T15:24:58.888Z,40.26
2022-08-16T15:27:35.670Z,40.10
2022-08-16T15:30:02.243Z,40.27
2022-08-16T15:32:33.673Z,40.34
2022-08-16T15:35:10.335Z,40.30
2022-08-16T15:37:44.056Z,40.22
2022-08-16T15:40:32.565Z,40.24
2022-08-16T15:43:01.237Z,40.24
2022-08-16T15:45:55.588Z,40.50
2022-08-16T15:48:21.291Z,40.74
2022-08-16T15:50:52.475Z,40.68
2022-08-16T15:53:24.207Z,40.75
2022-08-16T15:55:53.731Z,40.85
2022-08-16T15:58:35.727Z,40.82
2022-08-16T16:00:56.489Z,40.78
2022-08-16T16:03:26.697Z,40.96
2022-08-16T16:06:00.483Z,41.12
2022-08-16T16:08:30.775Z,41.17
2022-08-16T16:11:03.259Z,41.21
2022-08-16T16:13:33.309Z,41.27
2022-08-16T16:16:06.728Z,41.34
2022-08-16T16:18:38.129Z,41.29
2022-08-16T16:21:10.418Z,41.37
2022-08-16T16:23:53.881Z,41.37
2022-08-16T16:26:16.311Z,41.45
2022-08-16T16:29:08.784Z,41.70
2022-08-16T16:31:20.437Z,41.91
2022-08-16T16:33:53.988Z,42.04
2022-08-16T16:36:29.807Z,42.19
2022-08-16T16:38:59.621Z,42.28
2022-08-16T16:41:30.367Z,42.27
2022-08-16T16:44:02.158Z,42.25
2022-08-16T16:46:42.737Z,42.25
2022-08-16T16:49:09.238Z,42.20
2022-08-16T16:51:41.232Z,42.12
2022-08-16T16:54:12.903Z,42.23
2022-08-16T16:56:58.992Z,43.60
2022-08-16T16:59:28.239Z,43.23
2022-08-16T17:02:01.405Z,43.70
2022-08-16T17:04:31.798Z,43.20
2022-08-16T17:07:02.377Z,42.94
2022-08-16T17:09:33.081Z,43.66
2022-08-16T17:12:07.650Z,43.70
2022-08-16T17:14:38.696Z,43.87
2022-08-16T17:17:13.285Z,43.41
2022-08-16T17:19:43.195Z,42.88
2022-08-16T17:22:16.200Z,43.63
2022-08-16T17:24:53.484Z,43.84
2022-08-16T17:27:32.422Z,43.46
2022-08-16T17:29:57.539Z,43.68
2022-08-16T17:32:34.147Z,43.09
2022-08-16T17:35:00.556Z,43.80
2022-08-16T17:37:34.029Z,43.76
2022-08-16T17:40:23.217Z,43.48
2022-08-16T17:42:33.907Z,44.02
2022-08-16T17:45:03.513Z,43.48
2022-08-16T17:47:33.214Z,43.13
2022-08-16T17:50:03.131Z,43.02
2022-08-16T17:52:35.707Z,43.36
2022-08-16T17:55:12.212Z,44.11
2022-08-16T17:57:42.809Z,43.56
2022-08-16T18:00:20.107Z,43.56
2022-08-16T18:02:47.673Z,43.41
2022-08-16T18:05:17.618Z,44.04
2022-08-16T18:07:47.716Z,43.85
2022-08-16T18:10:31.288Z,43.37
2022-08-16T18:12:55.497Z,43.92
2022-08-16T18:15:24.125Z,43.49
2022-08-16T18:17:54.154Z,43.05
2022-08-16T18:20:28.492Z,43.45
2022-08-16T18:23:07.577Z,44.09
2022-08-16T18:25:37.618Z,44.21
2022-08-16T18:28:08.138Z,43.89
2022-08-16T18:30:38.066Z,43.44
2022-08-16T18:33:10.682Z,43.65
2022-08-16T18:35:43.529Z,44.27
2022-08-16T18:38:13.160Z,43.97
2022-08-16T18:40:42.784Z,44.40
2022-08-16T18:43:14.830Z,43.95
2022-08-16T18:45:46.743Z,43.53
2022-08-16T18:48:17.875Z,43.36
2022-08-16T18:51:04.066Z,43.28
2022-08-16T18:53:27.315Z,43.73
2022-08-16T18:55:59.521Z,44.49
2022-08-16T18:58:29.708Z,44.82
2022-08-16T19:00:59.571Z,44.30
2022-08-16T19:03:31.784Z,43.77
2022-08-16T19:06:06.715Z,43.56
2022-08-16T19:08:37.979Z,43.99
2022-08-16T19:11:09.379Z,44.90
2022-08-16T19:13:40.566Z,44.84
2022-08-16T19:16:10.345Z,44.70
2022-08-16T19:18:40.411Z,44.16
2022-08-16T19:21:10.537Z,43.78
2022-08-16T19:23:42.011Z,43.63
2022-08-16T19:26:25.651Z,44.34
2022-08-16T19:28:59.642Z,44.69
2022-08-16T19:31:29.542Z,45.06
2022-08-16T19:33:59.288Z,44.43
2022-08-16T19:36:36.014Z,44.08
2022-08-16T19:39:06.361Z,43.91
2022-08-16T19:41:37.422Z,45.03
2022-08-16T19:44:11.481Z,45.04
2022-08-16T19:46:41.852Z,45.30
2022-08-16T19:49:14.938Z,44.77
2022-08-16T19:51:45.442Z,44.33
2022-08-16T19:54:16.304Z,44.05
2022-08-16T19:56:47.065Z,44.90
2022-08-16T19:59:20.508Z,45.16
2022-08-16T20:01:50.372Z,45.36
2022-08-16T20:04:20.186Z,44.76
2022-08-16T20:06:49.817Z,44.34
2022-08-16T20:09:19.516Z,44.12
2022-08-16T20:11:49.963Z,44.74
2022-08-16T20:14:25.603Z,45.13
2022-08-16T20:16:53.535Z,45.43
2022-08-16T20:19:23.228Z,44.90
2022-08-16T20:21:53.218Z,44.56
2022-08-16T20:24:34.213Z,44.53
2022-08-16T20:26:54.330Z,45.16
2022-08-16T20:29:23.963Z,45.23
2022-08-16T20:31:54.734Z,45.58
2022-08-16T20:34:24.843Z,44.96
2022-08-16T20:36:55.982Z,44.95
2022-08-16T20:39:25.783Z,45.46
2022-08-16T20:41:55.423Z,45.23
2022-08-16T20:44:25.136Z,45.11
2022-08-16T20:46:56.859Z,44.98
2022-08-16T20:49:26.586Z,44.95
2022-08-16T20:51:59.766Z,44.90
2022-08-16T20:54:30.578Z,44.83
2022-08-16T20:57:00.139Z,44.76
2022-08-16T20:59:30.285Z,44.68
2022-08-16T21:01:59.991Z,44.60
2022-08-16T21:04:30.213Z,44.58
2022-08-16T21:07:00.396Z,45.03
2022-08-16T21:09:32.413Z,45.39
2022-08-16T21:12:03.605Z,45.11
2022-08-16T21:14:34.815Z,44.84
2022-08-16T21:17:05.149Z,44.66
2022-08-16T21:19:34.689Z,45.04
2022-08-16T21:22:22.790Z,45.03
2022-08-16T21:24:54.088Z,45.17
2022-08-16T21:27:26.922Z,45.10
2022-08-16T21:29:57.770Z,44.78
2022-08-16T21:32:35.799Z,44.55
2022-08-16T21:35:03.335Z,44.92
2022-08-16T21:37:33.055Z,44.74
2022-08-16T21:40:02.653Z,44.91
2022-08-16T21:42:36.410Z,44.76
2022-08-16T21:45:04.358Z,44.40
2022-08-16T21:47:33.869Z,44.59
2022-08-16T21:50:03.563Z,44.59
2022-08-16T21:52:33.070Z,44.40
2022-08-16T21:55:02.585Z,44.51
2022-08-16T21:57:35.455Z,44.35
2022-08-16T22:00:03.652Z,44.09
2022-08-16T22:02:38.546Z,44.36
2022-08-16T22:05:06.939Z,43.98
2022-08-16T22:07:36.529Z,44.32
2022-08-16T22:11:05.489Z,43.79
2022-08-16T22:12:38.162Z,43.78
2022-08-16T22:15:09.244Z,43.79
2022-08-16T22:17:39.126Z,43.90
2022-08-16T22:20:09.952Z,43.65
2022-08-16T22:22:39.579Z,43.93
2022-08-16T22:25:10.122Z,43.59
2022-08-16T22:30:35.126Z,43.75
2022-08-16T22:33:03.185Z,43.50
2022-08-16T22:35:32.925Z,43.25
2022-08-16T22:38:50.646Z,43.67
2022-08-16T22:40:33.794Z,43.19
2022-08-16T22:43:03.364Z,43.21
2022-08-16T22:45:33.121Z,43.41
2022-08-16T22:48:11.435Z,43.19
2022-08-16T22:50:41.922Z,43.42
2022-08-16T22:53:11.669Z,42.95
2022-08-16T22:55:42.471Z,42.77
2022-08-16T22:58:13.771Z,43.17
2022-08-16T23:00:45.001Z,43.07
2022-08-16T23:03:18.703Z,43.01
2022-08-16T23:05:51.324Z,42.90
2022-08-16T23:08:38.086Z,42.52
2022-08-16T23:10:53.902Z,42.47
2022-08-16T23:13:25.667Z,42.94
2022-08-16T23:16:01.832Z,42.78
2022-08-16T23:18:32.270Z,42.74
2022-08-16T23:21:03.399Z,42.67
2022-08-16T23:23:34.039Z,42.30
2022-08-16T23:26:46.564Z,42.64
2022-08-16T23:28:36.778Z,42.63
2022-08-16T23:31:07.753Z,42.24
2022-08-16T23:33:37.891Z,42.21
2022-08-16T23:36:08.321Z,42.21
2022-08-16T23:38:39.852Z,41.81
2022-08-16T23:41:13.254Z,42.45
2022-08-16T23:43:43.970Z,42.22
2022-08-16T23:46:17.149Z,42.11
2022-08-16T23:49:58.987Z,42.14
2022-08-16T23:51:38.397Z,41.66
2022-08-16T23:53:51.795Z,41.99
2022-08-16T23:56:22.244Z,41.89
2022-08-16T23:59:02.110Z,41.82
